Time;durP1;ratioP1;P1;durP2;ratioP2;P2;SDS_P1;SDS_P2;PMS_P1;PMS_P2;Temp;Humidity;BMP_temperature;BMP_pressure;BME280_temperature;BME280_humidity;BME280_pressure;Samples;Min_cycle;Max_cycle;Signal;HPM_P1;HPM_P2
2023/10/18 00:01:23;;;;;;;26.20;23.90;;;;;;;20.25;40.19;95227.81;6210045;28;108888;-60
2023/10/18 00:04:28;;;;;;;25.23;23.02;;;;;;;20.24;40.34;95224.34;6209154;28;108987;-60
2023/10/18 00:07:32;;;;;;;26.10;23.90;;;;;;;20.25;40.29;95227.81;6210432;28;111663;-60
2023/10/18 00:10:35;;;;;;;25.25;23.05;;;;;;;20.25;39.99;95228.59;6198321;28;110575;-61
2023/10/18 00:13:38;;;;;;;24.33;22.23;;;;;;;20.26;40.16;95221.41;6209059;28;109552;-61
2023/10/18 00:16:41;;;;;;;25.33;23.03;;;;;;;20.24;40.03;95220.88;6209408;28;108991;-61
2023/10/18 00:19:46;;;;;;;24.40;22.30;;;;;;;20.26;40.00;95208.91;6207177;28;109235;-63
2023/10/18 00:22:49;;;;;;;22.93;20.97;;;;;;;20.26;39.94;95216.88;6202292;28;109248;-61
2023/10/18 00:25:52;;;;;;;23.15;21.15;;;;;;;20.25;39.97;95219.84;6209022;28;109425;-61
2023/10/18 00:28:56;;;;;;;22.10;20.17;;;;;;;20.25;40.07;95211.88;6208406;28;109215;-61
2023/10/18 00:31:59;;;;;;;23.48;21.48;;;;;;;20.24;40.04;95220.88;6198880;28;109415;-61
2023/10/18 00:35:12;;;;;;;21.90;20.00;;;;;;;20.24;40.16;95203.09;6219877;28;109233;-61
2023/10/18 00:38:18;;;;;;;21.40;19.60;;;;;;;20.21;40.19;95206.31;6209144;28;109218;-61
2023/10/18 00:41:22;;;;;;;20.90;19.10;;;;;;;20.22;40.18;95197.25;6209196;28;109005;-61
2023/10/18 00:44:26;;;;;;;21.10;19.30;;;;;;;20.20;40.17;95199.44;6198028;28;109050;-60
2023/10/18 00:47:30;;;;;;;19.73;18.03;;;;;;;20.21;40.07;95205.53;6208231;28;109412;-62
2023/10/18 00:50:38;;;;;;;19.73;18.02;;;;;;;20.19;40.08;95195.19;6209585;28;108780;-67
2023/10/18 00:53:42;;;;;;;20.48;18.67;;;;;;;20.20;40.21;95193.31;6209787;28;109441;-67
2023/10/18 00:56:46;;;;;;;19.08;17.40;;;;;;;20.22;39.90;95197.25;6193422;28;109028;-66
2023/10/18 00:59:52;;;;;;;19.38;17.58;;;;;;;20.19;40.04;95197.84;6207208;28;109474;-66
2023/10/18 01:02:59;;;;;;;18.73;17.13;;;;;;;20.17;39.92;95200.00;6209167;28;108783;-66
2023/10/18 01:06:07;;;;;;;18.00;16.50;;;;;;;20.21;40.21;95205.53;6199315;28;109415;-66
2023/10/18 01:09:15;;;;;;;17.50;15.98;;;;;;;20.21;39.99;95203.66;6208485;28;109469;-66
2023/10/18 01:12:19;;;;;;;17.57;16.07;;;;;;;20.17;40.07;95210.63;6207633;28;109447;-67
2023/10/18 01:15:22;;;;;;;17.35;15.85;;;;;;;20.19;40.02;95213.78;6209092;28;109058;-66
2023/10/18 01:18:25;;;;;;;17.45;15.95;;;;;;;20.20;40.04;95215.38;6197947;28;109350;-67
2023/10/18 01:21:30;;;;;;;17.10;15.60;;;;;;;20.19;40.25;95205.81;6209502;28;109387;-67
2023/10/18 01:24:35;;;;;;;16.30;14.90;;;;;;;20.18;40.13;95198.13;6208045;28;109224;-67
2023/10/18 01:27:39;;;;;;;15.77;14.38;;;;;;;20.17;40.02;95200.00;6208394;28;109798;-66
2023/10/18 01:30:42;;;;;;;15.10;13.80;;;;;;;20.16;39.99;95193.09;6197885;28;109401;-66
2023/10/18 01:33:47;;;;;;;15.60;14.20;;;;;;;20.15;40.13;95196.03;6208339;28;108839;-66
2023/10/18 01:36:52;;;;;;;14.73;13.52;;;;;;;20.15;40.10;95194.16;6208366;28;109156;-66
2023/10/18 01:40:19;;;;;;;15.00;13.70;;;;;;;20.16;40.00;95195.75;6202894;28;112918;-65
2023/10/18 01:43:22;;;;;;;15.35;14.05;;;;;;;20.16;40.05;95203.72;6209688;28;109639;-67
2023/10/18 01:46:26;;;;;;;15.20;13.90;;;;;;;20.15;40.02;95204.00;6211999;28;109000;-66
2023/10/18 01:49:31;;;;;;;13.98;12.73;;;;;;;20.12;40.07;95208.03;6212890;28;109274;-66
2023/10/18 01:52:37;;;;;;;13.55;12.43;;;;;;;20.13;40.24;95198.19;6192454;28;108990;-66
2023/10/18 01:55:43;;;;;;;13.60;12.50;;;;;;;20.12;40.13;95197.41;6212888;28;109007;-66
2023/10/18 01:58:47;;;;;;;14.32;13.02;;;;;;;20.11;40.19;95197.69;6211474;28;109219;-66
2023/10/18 02:01:51;;;;;;;12.90;11.80;;;;;;;20.14;40.29;95199.78;6211650;28;109214;-64
2023/10/18 02:04:57;;;;;;;13.30;12.20;;;;;;;20.11;40.14;95198.50;6201789;27;110360;-63
2023/10/18 02:08:01;;;;;;;13.20;12.10;;;;;;;20.14;40.02;95200.56;6207721;28;110654;-63
2023/10/18 02:11:07;;;;;;;12.60;11.60;;;;;;;20.16;40.02;95205.59;6212218;28;109532;-63
2023/10/18 02:14:13;;;;;;;13.35;12.15;;;;;;;20.12;40.21;95192.09;6202638;27;109801;-63
2023/10/18 02:17:18;;;;;;;13.23;12.05;;;;;;;20.15;40.27;95206.66;6212081;28;109088;-64
2023/10/18 02:20:26;;;;;;;13.10;11.90;;;;;;;20.14;40.21;95199.78;6211127;28;109156;-64
2023/10/18 02:23:34;;;;;;;13.13;12.02;;;;;;;20.12;40.30;95205.38;6212263;28;109047;-63
2023/10/18 02:26:47;;;;;;;13.67;12.57;;;;;;;20.11;40.30;95201.16;6201858;28;109438;-63
2023/10/18 02:29:52;;;;;;;12.90;11.80;;;;;;;20.13;40.40;95208.81;6210941;28;109273;-63
2023/10/18 02:32:58;;;;;;;13.18;12.02;;;;;;;20.13;40.08;95214.13;6212255;28;112213;-63
2023/10/18 02:36:05;;;;;;;13.27;12.10;;;;;;;20.11;40.08;95206.47;6210018;28;109013;-64
2023/10/18 02:39:10;;;;;;;12.68;11.57;;;;;;;20.11;40.12;95208.31;6203784;27;111864;-63
2023/10/18 02:42:18;;;;;;;13.82;12.63;;;;;;;20.13;40.09;95206.16;6212246;28;109159;-64
2023/10/18 02:45:22;;;;;;;12.75;11.65;;;;;;;20.15;39.74;95211.97;6211238;28;109285;-63
2023/10/18 02:48:25;;;;;;;13.40;12.20;;;;;;;20.12;40.11;95210.69;6208653;28;110353;-65
2023/10/18 02:51:28;;;;;;;13.23;12.02;;;;;;;20.11;40.18;95201.16;6211653;28;109369;-64
2023/10/18 02:54:33;;;;;;;13.20;12.00;;;;;;;20.11;40.36;95198.50;6211392;28;108722;-65
2023/10/18 02:57:40;;;;;;;13.50;12.30;;;;;;;20.14;40.21;95202.44;6211947;28;109210;-63
2023/10/18 03:00:44;;;;;;;14.20;13.00;;;;;;;20.12;40.22;95189.44;6200568;27;111179;-63
2023/10/18 03:03:55;;;;;;;13.70;12.50;;;;;;;20.12;40.05;95189.44;6212627;28;109164;-63
2023/10/18 03:06:59;;;;;;;15.02;13.70;;;;;;;20.10;40.07;95191.59;6213087;28;109549;-67
2023/10/18 03:10:11;;;;;;;15.10;13.80;;;;;;;20.11;40.32;95193.19;6214116;28;109099;-68
2023/10/18 03:13:17;;;;;;;15.52;14.23;;;;;;;20.11;40.46;95193.19;6209037;28;109043;-68
2023/10/18 03:16:27;;;;;;;16.20;14.80;;;;;;;20.14;40.48;95197.91;6212856;28;109047;-67
2023/10/18 03:19:31;;;;;;;16.48;15.00;;;;;;;20.15;40.47;95202.13;6212935;28;109035;-67
2023/10/18 03:22:39;;;;;;;17.70;16.10;;;;;;;20.14;40.70;95195.25;6203788;27;109393;-68
2023/10/18 03:25:43;;;;;;;22.00;20.10;;;;;;;20.16;42.10;95185.13;6207312;28;110181;-64
2023/10/18 03:28:48;;;;;;;22.77;20.77;;;;;;;20.17;41.41;95178.75;6211725;28;109119;-64
2023/10/18 03:31:51;;;;;;;23.00;21.00;;;;;;;20.18;41.47;95184.84;6212381;28;109216;-64
2023/10/18 03:34:56;;;;;;;21.83;19.95;;;;;;;20.19;41.36;95186.44;6202353;28;109026;-63
2023/10/18 03:38:05;;;;;;;21.00;19.30;;;;;;;20.18;41.42;95184.84;6213131;28;109852;-64
2023/10/18 03:41:10;;;;;;;19.98;18.20;;;;;;;20.15;41.94;95175.56;6211713;28;108948;-64
2023/10/18 03:44:16;;;;;;;11.30;10.30;;;;;;;19.76;42.14;95172.44;6210157;28;109770;-63
2023/10/18 03:47:24;;;;;;;11.52;10.52;;;;;;;19.81;42.03;95164.41;6207792;28;109021;-67
2023/10/18 03:50:37;;;;;;;10.15;9.25;;;;;;;19.90;41.75;95168.00;6211864;28;108780;-66
2023/10/18 03:53:40;;;;;;;10.10;9.20;;;;;;;19.89;41.96;95182.34;6212488;28;109493;-66
2023/10/18 03:56:43;;;;;;;10.20;9.20;;;;;;;19.90;41.81;95186.59;6202146;27;109181;-67
2023/10/18 03:59:49;;;;;;;9.00;8.20;;;;;;;19.83;42.21;95191.50;6211068;28;109177;-67
2023/10/18 04:02:56;;;;;;;7.22;6.50;;;;;;;19.85;42.24;95176.06;6211153;28;109242;-68
2023/10/18 04:06:07;;;;;;;7.50;6.80;;;;;;;19.84;41.93;95164.63;6211085;28;109105;-68
2023/10/18 04:09:16;;;;;;;13.40;12.30;;;;;;;19.85;42.37;95149.50;6201012;28;109936;-69
2023/10/18 04:12:21;;;;;;;10.60;9.70;;;;;;;19.94;42.77;95169.00;6211101;28;110344;-64
2023/10/18 04:15:29;;;;;;;9.80;8.90;;;;;;;20.01;42.33;95164.13;6209628;28;109740;-64
2023/10/18 04:18:35;;;;;;;10.30;8.70;;;;;;;20.03;42.62;95161.97;6204307;28;109089;-62
2023/10/18 04:21:38;;;;;;;7.20;6.50;;;;;;;20.07;42.96;95152.34;6200767;28;108894;-59
2023/10/18 04:24:41;;;;;;;7.50;6.70;;;;;;;20.06;42.23;95157.94;6210041;28;109118;-60
2023/10/18 04:27:47;;;;;;;7.88;6.80;;;;;;;20.02;42.35;95160.38;6210135;28;110293;-60
2023/10/18 04:30:59;;;;;;;7.30;6.60;;;;;;;19.95;42.11;95165.25;6200235;28;109062;-61
2023/10/18 04:34:03;;;;;;;7.00;6.40;;;;;;;19.95;42.14;95163.41;6210232;28;109307;-61
2023/10/18 04:37:12;;;;;;;6.90;6.30;;;;;;;19.93;42.13;95157.59;6210254;28;109193;-60
2023/10/18 04:40:25;;;;;;;6.50;5.90;;;;;;;19.93;42.07;95172.72;6209507;28;109160;-60
2023/10/18 04:43:28;;;;;;;6.60;5.97;;;;;;;19.91;42.04;95159.75;6199814;28;109616;-60
2023/10/18 04:46:35;;;;;;;6.90;6.30;;;;;;;19.92;42.14;95161.31;6210056;28;109408;-60
2023/10/18 04:49:40;;;;;;;6.47;5.90;;;;;;;19.93;41.85;95164.75;6210559;28;109418;-61
2023/10/18 04:52:47;;;;;;;6.70;6.10;;;;;;;19.91;41.78;95172.22;6205680;28;111911;-61
2023/10/18 04:55:52;;;;;;;6.80;6.20;;;;;;;19.84;42.07;95164.63;6205128;28;109239;-60
2023/10/18 04:58:56;;;;;;;6.40;5.90;;;;;;;19.84;42.12;95169.94;6209964;28;109230;-59
2023/10/18 05:02:00;;;;;;;6.30;5.80;;;;;;;19.83;42.02;95175.56;6210642;28;109132;-60
2023/10/18 05:05:10;;;;;;;6.40;5.80;;;;;;;19.84;42.05;95175.25;6201007;28;110350;-59
2023/10/18 05:08:15;;;;;;;6.33;5.73;;;;;;;19.86;41.82;95196.22;6209683;28;109248;-59
2023/10/18 05:11:24;;;;;;;7.00;6.40;;;;;;;19.83;41.96;95192.28;6209445;28;109057;-60
2023/10/18 05:14:43;;;;;;;6.78;6.18;;;;;;;19.78;41.99;95191.53;6209942;28;109228;-59
2023/10/18 05:17:54;;;;;;;6.78;6.18;;;;;;;19.80;41.78;95208.75;6201116;28;109909;-60
2023/10/18 05:20:58;;;;;;;6.50;6.00;;;;;;;19.79;41.80;95219.66;6211500;28;109216;-59
2023/10/18 05:24:04;;;;;;;7.00;6.40;;;;;;;19.81;41.83;95228.91;6210098;28;109231;-60
2023/10/18 05:27:19;;;;;;;6.47;5.88;;;;;;;19.77;41.85;95221.81;6202937;28;109545;-60
2023/10/18 05:30:27;;;;;;;6.70;6.00;;;;;;;19.79;41.88;95235.59;6184850;28;109421;-64
2023/10/18 05:33:47;;;;;;;6.35;5.82;;;;;;;19.76;41.83;95244.13;6197864;28;110986;-62
2023/10/18 05:36:58;;;;;;;6.43;5.82;;;;;;;19.82;41.66;95243.78;6209560;28;109057;-62
2023/10/18 05:43:29;;;;;;;6.90;6.32;;;;;;;19.78;41.69;95249.94;6209602;28;109265;-62
2023/10/18 05:46:33;;;;;;;6.53;5.93;;;;;;;19.75;41.80;95245.22;6209525;28;109284;-62
2023/10/18 05:49:41;;;;;;;6.47;5.88;;;;;;;19.76;41.58;95249.44;6204263;28;109668;-62
2023/10/18 05:52:49;;;;;;;6.07;5.47;;;;;;;19.73;41.73;95246.28;6203969;28;109148;-62
2023/10/18 05:55:53;;;;;;;6.10;5.60;;;;;;;19.74;41.71;95244.44;6209270;28;108948;-63
2023/10/18 05:59:16;;;;;;;6.80;6.20;;;;;;;19.75;41.69;95243.34;6209073;28;109327;-63
2023/10/18 06:02:23;;;;;;;5.80;5.30;;;;;;;19.75;41.64;95238.03;6197867;28;109626;-63
2023/10/18 06:05:33;;;;;;;6.57;6.07;;;;;;;19.71;41.68;95237.81;6185232;28;109047;-63
2023/10/18 06:08:36;;;;;;;6.38;5.78;;;;;;;19.76;41.59;95230.84;6194364;28;109224;-63
2023/10/18 06:11:40;;;;;;;5.78;5.28;;;;;;;19.74;41.51;95233.81;6209797;28;108748;-63
2023/10/18 06:14:44;;;;;;;5.70;5.20;;;;;;;19.78;41.48;95244.63;6199007;28;110381;-62
2023/10/18 06:17:52;;;;;;;6.60;5.90;;;;;;;19.75;41.64;95245.22;6209514;28;110149;-63
2023/10/18 06:20:59;;;;;;;5.90;5.40;;;;;;;19.76;41.60;95241.47;6209214;28;109372;-64
2023/10/18 06:24:08;;;;;;;6.25;5.75;;;;;;;19.76;41.50;95241.47;6199103;28;109024;-63
2023/10/18 06:27:15;;;;;;;6.00;5.50;;;;;;;19.79;41.41;95247.00;6212765;28;109070;-63
2023/10/18 06:30:19;;;;;;;6.38;5.88;;;;;;;19.76;41.42;95236.16;6213122;28;109004;-63
2023/10/18 06:33:23;;;;;;;5.97;5.47;;;;;;;19.77;41.46;95238.53;6212943;28;110201;-64
2023/10/18 06:36:32;;;;;;;5.65;5.15;;;;;;;19.81;41.39;95246.72;6202157;28;108785;-64
2023/10/18 06:39:35;;;;;;;5.50;5.00;;;;;;;19.80;41.38;95242.47;6212347;28;110545;-62
2023/10/18 06:42:40;;;;;;;5.47;4.97;;;;;;;19.79;41.38;95240.91;6212986;28;110169;-61
2023/10/18 06:45:46;;;;;;;5.87;5.27;;;;;;;19.81;41.30;95249.38;6188695;28;110482;-61
2023/10/18 06:48:51;;;;;;;5.50;5.00;;;;;;;19.79;41.39;95249.66;6186508;28;108892;-61
2023/10/18 06:52:17;;;;;;;5.40;4.90;;;;;;;19.83;41.31;95258.66;6212818;28;109002;-61
2023/10/18 06:55:35;;;;;;;5.17;4.77;;;;;;;19.83;41.17;95257.88;6213091;28;112255;-61
2023/10/18 06:58:47;;;;;;;5.65;5.15;;;;;;;19.83;41.11;95258.66;6202311;28;109093;-61
2023/10/18 07:01:57;;;;;;;5.07;4.63;;;;;;;19.83;41.23;95258.66;6212820;28;108973;-60
2023/10/18 07:05:00;;;;;;;5.33;4.90;;;;;;;19.85;41.23;95250.41;6212616;28;110409;-61
2023/10/18 07:08:18;;;;;;;5.25;4.75;;;;;;;19.93;41.03;95260.38;6212377;28;109480;-61
2023/10/18 07:11:22;;;;;;;4.70;4.30;;;;;;;19.88;41.07;95257.78;6201959;28;109957;-62
2023/10/18 07:14:45;;;;;;;4.90;4.50;;;;;;;19.92;41.00;95266.75;6212262;28;108793;-62
2023/10/18 07:17:51;;;;;;;5.20;4.70;;;;;;;19.89;41.05;95268.13;6212420;28;109137;-62
2023/10/18 07:20:59;;;;;;;5.13;4.63;;;;;;;19.90;41.03;95266.25;6202041;28;108956;-62
2023/10/18 07:24:10;;;;;;;4.70;4.30;;;;;;;19.88;40.92;95265.75;6211435;28;109415;-62
2023/10/18 07:27:17;;;;;;;4.53;4.13;;;;;;;19.87;41.04;95267.63;6212038;28;109288;-62
2023/10/18 07:30:20;;;;;;;4.80;4.40;;;;;;;19.90;41.02;95269.72;6211562;28;109167;-62
2023/10/18 07:33:24;;;;;;;4.82;4.43;;;;;;;19.89;41.09;95270.00;6201188;28;109666;-63
2023/10/18 07:36:27;;;;;;;4.90;4.40;;;;;;;19.90;41.05;95269.72;6211346;28;109098;-62
2023/10/18 07:39:32;;;;;;;4.50;4.10;;;;;;;19.92;40.92;95272.88;6210395;28;109181;-62
2023/10/18 07:42:35;;;;;;;4.47;4.07;;;;;;;19.89;40.94;95262.03;6211823;28;109023;-62
2023/10/18 07:45:39;;;;;;;4.70;4.20;;;;;;;19.87;40.94;95264.97;6200672;28;109427;-61
2023/10/18 07:48:46;;;;;;;4.60;4.20;;;;;;;19.86;40.93;95262.59;6211434;28;110060;-61
2023/10/18 07:51:49;;;;;;;4.25;3.95;;;;;;;19.87;40.81;95267.63;6211545;28;109075;-62
2023/10/18 07:54:54;;;;;;;4.70;4.30;;;;;;;19.89;40.77;95257.50;6202336;28;109027;-62
2023/10/18 07:57:58;;;;;;;4.50;4.10;;;;;;;19.91;40.91;95260.66;6211547;28;112131;-63
2023/10/18 08:01:13;;;;;;;4.70;4.30;;;;;;;19.92;40.96;95258.78;6211340;28;109095;-62
2023/10/18 08:04:20;;;;;;;4.72;4.32;;;;;;;19.91;41.02;95258.00;6211507;28;108806;-62
2023/10/18 08:07:27;;;;;;;4.18;3.78;;;;;;;19.90;41.08;95253.78;6200406;28;109454;-62
2023/10/18 08:10:34;;;;;;;4.22;3.83;;;;;;;19.93;40.72;95261.16;6211137;28;109344;-62
2023/10/18 08:13:45;;;;;;;4.10;3.70;;;;;;;19.93;40.81;95265.69;6211493;28;109046;-63
2023/10/18 08:16:55;;;;;;;4.30;3.90;;;;;;;19.91;40.93;95265.19;6209782;28;109223;-63
2023/10/18 08:20:26;;;;;;;4.20;3.80;;;;;;;19.92;40.54;95261.44;6204806;28;109093;-63
2023/10/18 08:23:38;;;;;;;4.00;3.60;;;;;;;19.90;40.66;95264.41;6210530;28;109209;-62
2023/10/18 08:26:51;;;;;;;4.10;3.70;;;;;;;19.92;40.88;95269.41;6210697;28;109219;-62
2023/10/18 08:29:55;;;;;;;4.10;3.70;;;;;;;19.91;40.85;95271.28;6200576;28;109314;-64
2023/10/18 08:32:58;;;;;;;4.25;3.85;;;;;;;19.91;40.75;95268.63;6210735;28;109660;-63
2023/10/18 08:36:07;;;;;;;4.13;3.72;;;;;;;19.89;40.84;95265.47;6210356;28;109450;-63
2023/10/18 08:39:11;;;;;;;3.90;3.60;;;;;;;19.91;40.75;95265.19;6209577;28;109463;-63
2023/10/18 08:42:19;;;;;;;3.80;3.50;;;;;;;19.93;40.66;95276.31;6199959;28;109124;-63
2023/10/18 08:45:23;;;;;;;4.50;4.10;;;;;;;19.92;40.54;95272.88;6211051;28;109941;-64
2023/10/18 08:48:30;;;;;;;3.92;3.63;;;;;;;19.93;40.51;95268.34;6209586;28;109275;-64
2023/10/18 08:51:35;;;;;;;4.20;3.80;;;;;;;19.90;40.75;95274.22;6179031;28;109232;-63
2023/10/18 08:54:41;;;;;;;3.50;3.20;;;;;;;19.89;40.79;95273.44;6192795;28;110215;-63
2023/10/18 08:57:47;;;;;;;3.75;3.45;;;;;;;19.87;40.69;95275.59;6210363;28;109086;-63
2023/10/18 09:01:09;;;;;;;3.70;3.40;;;;;;;19.91;40.93;95278.47;6210234;28;109198;-60
2023/10/18 09:04:12;;;;;;;3.90;3.60;;;;;;;19.89;40.76;95272.66;6199409;28;109037;-60
2023/10/18 09:07:42;;;;;;;3.85;3.55;;;;;;;19.89;40.87;95272.66;6210332;28;109038;-60
2023/10/18 09:10:54;;;;;;;3.90;3.50;;;;;;;19.91;40.65;95279.25;6208725;28;109605;-61
2023/10/18 09:14:07;;;;;;;3.83;3.40;;;;;;;19.92;40.77;95280.03;6203780;28;109258;-60
2023/10/18 09:17:11;;;;;;;4.05;3.75;;;;;;;19.90;40.75;95282.97;6210151;28;108977;-60
2023/10/18 09:20:18;;;;;;;3.75;3.45;;;;;;;19.90;40.83;95282.97;6209775;28;108522;-60
2023/10/18 09:23:24;;;;;;;3.67;3.38;;;;;;;19.90;40.87;95290.94;6198702;28;109188;-60
2023/10/18 09:26:35;;;;;;;3.80;3.50;;;;;;;19.92;40.50;95282.69;6209599;28;109136;-59
2023/10/18 09:29:40;;;;;;;4.10;3.80;;;;;;;19.94;40.55;95288.50;6209379;28;109239;-60
2023/10/18 09:32:43;;;;;;;3.70;3.40;;;;;;;19.90;40.67;95290.16;6210247;28;109043;-61
2023/10/18 09:35:49;;;;;;;3.70;3.40;;;;;;;19.90;40.60;95280.31;6199662;28;109157;-59
2023/10/18 09:38:53;;;;;;;3.30;3.00;;;;;;;19.89;40.87;95289.38;6209520;28;108914;-61
2023/10/18 09:41:59;;;;;;;3.40;3.10;;;;;;;19.90;40.66;95276.88;6196668;28;111507;-59
2023/10/18 09:45:08;;;;;;;3.40;3.10;;;;;;;19.89;40.58;95262.81;6204546;28;109213;-60
2023/10/18 09:48:12;;;;;;;3.47;3.17;;;;;;;19.89;40.86;95267.34;6203640;28;109111;-61
2023/10/18 09:51:21;;;;;;;3.60;3.30;;;;;;;19.89;40.87;95272.66;6209020;28;109073;-61
2023/10/18 09:54:26;;;;;;;3.60;3.30;;;;;;;19.90;40.66;95266.25;6209858;28;108854;-61
2023/10/18 09:57:35;;;;;;;3.90;3.60;;;;;;;19.90;40.73;95259.09;6198824;28;109321;-60
2023/10/18 10:00:42;;;;;;;3.60;3.30;;;;;;;19.91;40.74;95265.19;6214012;28;109252;-60
2023/10/18 10:03:52;;;;;;;3.30;3.00;;;;;;;19.89;40.75;95248.75;6214769;28;109397;-60
2023/10/18 10:06:56;;;;;;;3.70;3.40;;;;;;;19.87;40.67;95253.56;6214121;28;110275;-61
2023/10/18 10:10:09;;;;;;;3.80;3.30;;;;;;;19.86;40.73;95247.47;6203951;28;110252;-63
2023/10/18 10:13:18;;;;;;;3.50;3.20;;;;;;;19.85;40.49;95234.47;6214077;28;109368;-63
2023/10/18 10:16:25;;;;;;;3.78;3.47;;;;;;;19.93;40.72;95245.22;6213898;28;108880;-62
2023/10/18 10:19:31;;;;;;;3.30;3.00;;;;;;;19.94;40.62;95238.06;6208918;28;110198;-63
2023/10/18 10:22:37;;;;;;;3.50;3.20;;;;;;;19.93;40.67;95228.50;6207689;28;109270;-63
2023/10/18 10:25:48;;;;;;;3.50;3.20;;;;;;;19.94;40.56;95227.44;6213134;28;109446;-62
2023/10/18 10:32:31;;;;;;;3.40;3.10;;;;;;;19.95;40.31;95226.34;6202377;28;111805;-63
2023/10/18 10:35:35;;;;;;;3.60;3.30;;;;;;;19.95;40.51;95213.84;6213345;28;108912;-62
2023/10/18 10:38:39;;;;;;;3.28;2.97;;;;;;;19.96;40.42;95217.31;6212895;28;108960;-62
2023/10/18 10:41:42;;;;;;;3.10;2.80;;;;;;;19.97;40.38;95205.59;6210759;28;109204;-62
2023/10/18 10:44:56;;;;;;;3.58;3.28;;;;;;;19.95;40.61;95208.53;6204860;28;109033;-62
2023/10/18 10:48:30;;;;;;;3.20;2.90;;;;;;;19.98;40.53;95209.84;6213050;28;109532;-62
2023/10/18 10:51:37;;;;;;;2.90;2.70;;;;;;;19.98;40.58;95205.31;6211535;28;108819;-63
2023/10/18 10:54:42;;;;;;;3.30;3.00;;;;;;;19.97;40.53;95202.94;6201845;28;110160;-62
2023/10/18 10:57:47;;;;;;;3.28;2.97;;;;;;;19.97;40.45;95210.91;6212536;28;109285;-62
2023/10/18 11:01:04;;;;;;;3.30;3.00;;;;;;;19.96;40.60;95207.47;6212815;28;109065;-62
2023/10/18 11:04:23;;;;;;;3.40;3.10;;;;;;;19.95;40.42;95213.06;6212640;28;109348;-62
2023/10/18 11:07:29;;;;;;;3.20;2.90;;;;;;;19.94;40.48;95211.50;6205343;28;110854;-63
2023/10/18 11:10:36;;;;;;;3.50;3.20;;;;;;;19.92;40.53;95211.78;6211645;28;109145;-62
2023/10/18 11:13:41;;;;;;;3.10;2.80;;;;;;;19.92;40.60;95208.34;6212250;28;109510;-63
2023/10/18 11:16:46;;;;;;;3.13;2.83;;;;;;;19.91;40.56;95207.53;6201387;28;109126;-63
2023/10/18 11:19:53;;;;;;;3.50;3.20;;;;;;;19.93;40.63;95210.69;6212329;28;109013;-62
2023/10/18 11:22:58;;;;;;;3.33;3.00;;;;;;;19.89;40.66;95215.00;6212773;28;109588;-62
2023/10/18 11:26:08;;;;;;;3.38;3.08;;;;;;;19.88;40.75;95213.44;6212125;28;109085;-62
2023/10/18 11:29:12;;;;;;;3.50;3.20;;;;;;;19.91;40.60;95212.84;6201461;28;109109;-62
2023/10/18 11:32:19;;;;;;;3.70;3.40;;;;;;;19.94;40.35;95214.16;6212376;28;109054;-62
2023/10/18 11:35:42;;;;;;;3.88;3.58;;;;;;;19.99;40.68;95204.22;6211750;28;109332;-62
2023/10/18 11:42:06;;;;;;;3.30;3.00;;;;;;;19.94;40.54;95219.47;6205853;28;110322;-62
2023/10/18 11:45:18;;;;;;;3.17;2.88;;;;;;;19.94;40.62;95222.13;6211574;28;109097;-62
2023/10/18 11:48:33;;;;;;;3.38;3.08;;;;;;;19.92;40.73;95213.66;6211430;28;110598;-61
2023/10/18 11:51:42;;;;;;;3.50;3.20;;;;;;;19.87;40.69;95206.56;6200237;28;109515;-62
2023/10/18 11:54:47;;;;;;;3.20;2.90;;;;;;;19.88;40.21;95189.53;6211103;28;109107;-62
2023/10/18 11:57:51;;;;;;;3.30;2.80;;;;;;;19.88;40.40;95180.78;6186040;28;109201;-62
2023/10/18 12:00:58;;;;;;;3.40;3.10;;;;;;;19.92;40.59;95181.78;6194995;28;109512;-62
2023/10/18 12:04:02;;;;;;;3.40;3.10;;;;;;;19.91;40.71;95188.16;6199968;28;110010;-62
2023/10/18 12:07:08;;;;;;;3.20;2.90;;;;;;;19.88;40.78;95192.19;6211006;28;109090;-62
2023/10/18 12:10:17;;;;;;;3.20;2.90;;;;;;;19.87;40.77;95195.94;6211497;28;110266;-62
2023/10/18 12:13:21;;;;;;;3.00;2.70;;;;;;;19.88;40.71;95199.38;6201285;28;108626;-62
2023/10/18 12:16:24;;;;;;;3.23;2.93;;;;;;;19.86;40.71;95197.00;6209693;28;109079;-62
2023/10/18 12:19:28;;;;;;;3.28;2.85;;;;;;;19.88;40.57;95194.84;6210654;28;109658;-62
2023/10/18 12:22:34;;;;;;;3.40;3.10;;;;;;;19.85;40.86;95198.09;6209165;28;109288;-63
2023/10/18 12:25:39;;;;;;;3.50;3.20;;;;;;;19.84;40.89;95201.81;6199240;28;109166;-62
2023/10/18 12:28:42;;;;;;;3.10;2.80;;;;;;;19.84;40.66;95201.81;6210280;28;109180;-62
2023/10/18 12:31:52;;;;;;;3.05;2.75;;;;;;;19.83;40.48;95199.44;6210364;28;109000;-63
2023/10/18 12:34:57;;;;;;;3.20;2.90;;;;;;;19.88;40.72;95202.03;6210174;28;108918;-63
2023/10/18 12:38:04;;;;;;;3.30;2.90;;;;;;;19.81;40.64;95198.91;6199841;28;110043;-63
2023/10/18 12:41:18;;;;;;;3.10;2.80;;;;;;;19.82;40.75;95203.94;6209899;28;109760;-63
2023/10/18 12:44:25;;;;;;;3.50;3.20;;;;;;;19.82;40.80;95197.84;6210188;28;109579;-63
2023/10/18 12:47:31;;;;;;;3.30;3.00;;;;;;;19.84;40.65;95201.03;6201228;28;111671;-63
2023/10/18 12:50:34;;;;;;;3.50;3.20;;;;;;;19.84;40.71;95193.06;6208843;28;110046;-63
2023/10/18 12:53:41;;;;;;;3.10;2.80;;;;;;;19.83;40.60;95194.13;6209912;28;109361;-63
2023/10/18 12:56:56;;;;;;;3.37;3.07;;;;;;;19.86;40.73;95198.88;6209454;28;109014;-63
2023/10/18 13:00:13;;;;;;;3.40;3.10;;;;;;;19.82;40.81;95197.84;6198439;28;109041;-63
2023/10/18 13:03:23;;;;;;;3.40;3.10;;;;;;;19.83;40.76;95199.44;6209752;28;109339;-62
2023/10/18 13:06:30;;;;;;;3.30;3.00;;;;;;;19.80;40.60;95192.81;6209567;28;109372;-62
2023/10/18 13:09:35;;;;;;;3.10;2.80;;;;;;;19.82;40.45;95192.53;6203073;28;109606;-62
2023/10/18 13:12:44;;;;;;;3.45;3.15;;;;;;;19.82;40.62;95197.84;6202633;28;109071;-63
2023/10/18 13:15:47;;;;;;;3.10;2.80;;;;;;;19.81;40.63;95196.25;6207786;28;109359;-64
2023/10/18 13:18:51;;;;;;;3.30;3.00;;;;;;;19.81;40.44;95196.25;6208088;28;108915;-64
2023/10/18 13:21:54;;;;;;;3.40;3.10;;;;;;;19.83;40.52;95196.78;6196294;28;109103;-64
2023/10/18 13:24:57;;;;;;;3.30;3.00;;;;;;;19.81;40.56;95197.06;6207750;28;109432;-64
2023/10/18 13:28:05;;;;;;;3.60;3.30;;;;;;;19.78;40.57;95192.31;6207854;28;109165;-63
2023/10/18 13:31:09;;;;;;;3.20;2.90;;;;;;;19.80;40.69;95192.81;6208115;28;109087;-63
2023/10/18 13:34:19;;;;;;;3.40;3.10;;;;;;;19.80;40.56;95189.38;6199315;28;109110;-64
2023/10/18 13:37:23;;;;;;;3.20;2.90;;;;;;;19.79;40.59;95193.91;6212187;28;109374;-64
2023/10/18 13:40:27;;;;;;;3.63;3.33;;;;;;;19.81;40.52;95191.75;6212045;28;109031;-61
2023/10/18 13:43:31;;;;;;;3.47;3.17;;;;;;;19.79;40.48;95191.25;6208178;28;109073;-62
2023/10/18 13:46:36;;;;;;;3.40;3.10;;;;;;;19.80;40.68;95192.81;6205877;28;110828;-61
2023/10/18 13:49:53;;;;;;;3.55;3.25;;;;;;;19.79;40.46;95191.25;6211783;28;109043;-62
2023/10/18 13:52:56;;;;;;;3.70;3.40;;;;;;;19.80;40.57;95189.38;6210588;28;109194;-62
2023/10/18 13:56:00;;;;;;;3.60;3.30;;;;;;;19.78;40.31;95184.34;6200839;28;108908;-60
2023/10/18 13:59:05;;;;;;;3.58;3.28;;;;;;;19.77;40.53;95182.00;6212203;28;110191;-61
2023/10/18 14:02:08;;;;;;;3.60;3.30;;;;;;;19.77;40.43;95180.13;6211549;28;109391;-61
2023/10/18 14:05:12;;;;;;;3.10;2.80;;;;;;;19.80;40.44;95181.41;6211762;28;109340;-61
2023/10/18 14:08:18;;;;;;;3.40;3.10;;;;;;;19.80;40.65;95176.09;6200895;28;111925;-60
2023/10/18 14:11:22;;;;;;;3.50;3.20;;;;;;;19.79;40.31;95170.00;6211476;28;109168;-60
2023/10/18 14:14:26;;;;;;;3.65;3.35;;;;;;;19.78;40.67;95167.63;6211617;28;110330;-62
2023/10/18 14:17:30;;;;;;;3.10;2.80;;;;;;;19.80;40.63;95170.78;6209031;28;109027;-63
2023/10/18 14:20:37;;;;;;;3.60;3.30;;;;;;;19.78;40.48;95176.38;6204102;28;109208;-61
2023/10/18 14:23:43;;;;;;;3.53;3.22;;;;;;;19.78;40.43;95181.69;6210218;28;109130;-60
2023/10/18 14:26:46;;;;;;;3.70;3.40;;;;;;;19.78;40.58;95178.25;6211039;28;109143;-60
2023/10/18 14:29:50;;;;;;;3.95;3.40;;;;;;;19.78;40.42;95171.09;6200191;28;109254;-61
2023/10/18 14:32:58;;;;;;;3.70;3.40;;;;;;;19.73;40.59;95168.50;6210286;28;109145;-61
2023/10/18 14:36:09;;;;;;;3.90;3.50;;;;;;;19.77;40.68;95166.06;6211034;28;109234;-60